createdAt,value
2018-03-06T00:00:48.887Z,105.18
2018-03-06T00:03:16.681Z,99.10
2018-03-06T00:05:44.583Z,125.15
2018-03-06T00:08:12.158Z,132.20
2018-03-06T00:10:40.449Z,108.37
2018-03-06T00:13:08.352Z,113.28
2018-03-06T00:15:36.888Z,111.47
2018-03-06T00:18:04.407Z,102.35
2018-03-06T00:20:32.741Z,118.45
2018-03-06T00:23:00.261Z,111.07
2018-03-06T00:25:28.569Z,109.97
2018-03-06T00:27:56.093Z,109.03
2018-03-06T00:30:24.368Z,136.23
2018-03-06T00:32:52.668Z,132.02
2018-03-06T00:35:20.185Z,121.30
2018-03-06T00:37:47.736Z,119.65
2018-03-06T00:40:15.257Z,132.68
2018-03-06T00:42:42.817Z,109.25
2018-03-06T00:45:10.336Z,117.93
2018-03-06T00:47:38.619Z,123.82
2018-03-06T00:50:07.515Z,123.65
2018-03-06T00:52:35.805Z,129.68
2018-03-06T00:55:03.346Z,147.98
2018-03-06T00:57:31.166Z,135.80
2018-03-06T00:59:59.472Z,134.63
2018-03-06T01:02:27.037Z,150.93
2018-03-06T01:04:56.339Z,121.68
2018-03-06T01:07:25.399Z,121.28
2018-03-06T01:09:52.912Z,119.80
2018-03-06T01:12:20.460Z,137.00
2018-03-06T01:14:47.983Z,139.55
2018-03-06T01:17:15.517Z,120.75
2018-03-06T01:19:43.042Z,131.02
2018-03-06T01:22:11.685Z,123.35
2018-03-06T01:24:40.213Z,134.52
2018-03-06T01:27:08.584Z,131.70
2018-03-06T01:29:36.561Z,131.25
2018-03-06T01:32:04.864Z,137.75
2018-03-06T01:34:32.405Z,142.18
2018-03-06T01:37:00.692Z,147.52
2018-03-06T01:39:28.971Z,142.07
2018-03-06T01:41:57.298Z,151.63
2018-03-06T01:44:28.577Z,135.02
2018-03-06T01:46:56.110Z,137.68
2018-03-06T01:49:24.837Z,144.05
2018-03-06T01:52:02.443Z,139.27
2018-03-06T01:54:30.723Z,150.90
2018-03-06T01:56:58.934Z,134.18
2018-03-06T01:59:26.564Z,147.93
2018-03-06T02:01:54.861Z,126.82
2018-03-06T02:04:23.766Z,149.80
2018-03-06T02:06:51.285Z,146.45
2018-03-06T02:09:19.686Z,138.73
2018-03-06T02:11:47.615Z,146.65
2018-03-06T02:14:15.196Z,134.63
2018-03-06T02:16:42.685Z,152.40
2018-03-06T02:19:10.232Z,136.43
2018-03-06T02:21:38.509Z,151.00
2018-03-06T02:24:06.400Z,157.95
2018-03-06T02:26:36.062Z,135.45
2018-03-06T02:29:05.312Z,150.43
2018-03-06T02:34:04.589Z,163.45
2018-03-06T02:36:33.198Z,154.68
2018-03-06T02:39:01.018Z,155.45
2018-03-06T02:41:29.111Z,139.57
2018-03-06T02:43:56.669Z,163.43
2018-03-06T02:46:25.722Z,149.55
2018-03-06T02:48:53.503Z,166.77
2018-03-06T02:51:21.025Z,170.32
2018-03-06T02:53:48.565Z,157.82
2018-03-06T02:56:16.371Z,161.77
2018-03-06T02:58:47.435Z,187.25
2018-03-06T03:01:14.952Z,157.07
2018-03-06T03:03:42.478Z,128.25
2018-03-06T03:06:10.781Z,151.20
2018-03-06T03:08:38.350Z,163.80
2018-03-06T03:11:06.368Z,159.70
2018-03-06T03:16:06.426Z,162.68
2018-03-06T03:18:35.434Z,154.63
2018-03-06T03:21:02.967Z,147.55
2018-03-06T03:23:30.517Z,161.98
2018-03-06T03:25:59.724Z,159.05
2018-03-06T03:28:27.260Z,159.10
2018-03-06T03:30:54.773Z,164.98
2018-03-06T03:33:27.579Z,153.27
2018-03-06T03:35:55.100Z,155.18
2018-03-06T03:38:23.729Z,145.45
2018-03-06T03:40:51.972Z,155.45
2018-03-06T03:43:20.253Z,157.70
2018-03-06T03:45:48.560Z,162.98
2018-03-06T03:48:16.844Z,157.75
2018-03-06T03:50:45.134Z,170.65
2018-03-06T03:53:12.673Z,142.52
2018-03-06T03:55:40.214Z,148.00
2018-03-06T03:58:07.749Z,142.75
2018-03-06T04:00:36.945Z,142.43
2018-03-06T04:03:04.512Z,153.85
2018-03-06T04:05:32.794Z,155.87
2018-03-06T04:08:02.104Z,148.43
2018-03-06T04:10:31.390Z,142.82
2018-03-06T04:12:59.700Z,159.93
2018-03-06T04:15:27.212Z,143.10
2018-03-06T04:17:54.728Z,145.68
2018-03-06T04:20:23.072Z,145.65
2018-03-06T04:22:51.353Z,155.25
2018-03-06T04:25:19.664Z,168.18
2018-03-06T04:27:47.196Z,150.43
2018-03-06T04:30:14.748Z,139.85
2018-03-06T04:32:43.024Z,158.32
2018-03-06T04:35:11.334Z,162.15
2018-03-06T04:37:38.851Z,149.05
2018-03-06T04:40:06.361Z,155.45
2018-03-06T04:42:33.892Z,142.13
2018-03-06T04:45:02.173Z,150.50
2018-03-06T04:47:29.708Z,149.75
2018-03-06T04:49:57.227Z,145.50
2018-03-06T04:52:24.760Z,155.82
2018-03-06T04:58:04.972Z,155.98
2018-03-06T05:00:32.483Z,159.05
2018-03-06T05:03:00.758Z,166.65
2018-03-06T05:05:29.871Z,181.02
2018-03-06T05:07:57.376Z,159.37
2018-03-06T05:10:24.899Z,164.60
2018-03-06T05:12:52.416Z,180.60
2018-03-06T05:15:19.947Z,169.75
2018-03-06T05:17:47.459Z,159.23
2018-03-06T05:20:15.735Z,176.30
2018-03-06T05:22:44.046Z,163.12
2018-03-06T05:25:11.579Z,160.40
2018-03-06T05:27:39.871Z,173.87
2018-03-06T05:30:07.460Z,165.35
2018-03-06T05:32:35.079Z,170.10
2018-03-06T05:35:02.640Z,184.55
2018-03-06T05:37:30.184Z,174.07
2018-03-06T05:39:58.456Z,171.15
2018-03-06T05:42:26.770Z,159.90
2018-03-06T05:44:54.271Z,159.27
2018-03-06T05:47:21.788Z,157.02
2018-03-06T05:49:49.311Z,173.00
2018-03-06T05:52:17.593Z,184.40
2018-03-06T05:54:45.132Z,163.43
2018-03-06T05:57:12.690Z,145.60
2018-03-06T05:59:40.280Z,151.32
2018-03-06T06:02:08.664Z,168.55
2018-03-06T06:04:37.228Z,155.63
2018-03-06T06:07:04.984Z,161.50
2018-03-06T06:09:33.527Z,188.25
2018-03-06T06:12:01.136Z,174.25
2018-03-06T06:14:29.516Z,157.55
2018-03-06T06:16:57.142Z,173.52
2018-03-06T06:19:24.652Z,153.30
2018-03-06T06:21:53.001Z,161.60
2018-03-06T06:24:20.499Z,171.85
2018-03-06T06:26:48.807Z,143.43
2018-03-06T06:29:16.442Z,149.00
2018-03-06T06:31:44.732Z,167.87
2018-03-06T06:34:12.276Z,154.25
2018-03-06T06:36:41.312Z,178.95
2018-03-06T06:39:08.847Z,141.73
2018-03-06T06:41:36.360Z,154.68
2018-03-06T06:44:03.890Z,159.93
2018-03-06T06:46:31.400Z,146.15
2018-03-06T06:48:58.916Z,151.55
2018-03-06T06:51:26.417Z,157.10
2018-03-06T06:53:53.928Z,146.45
2018-03-06T06:56:21.484Z,166.45
2018-03-06T06:58:48.985Z,160.23
2018-03-06T07:01:20.358Z,154.63
2018-03-06T07:03:48.641Z,156.65
2018-03-06T07:06:16.936Z,157.62
2018-03-06T07:08:44.453Z,153.18
2018-03-06T07:11:11.986Z,139.60
2018-03-06T07:13:40.653Z,153.43
2018-03-06T07:16:08.160Z,144.23
2018-03-06T07:18:35.681Z,144.40
2018-03-06T07:21:03.185Z,148.48
2018-03-06T07:23:31.389Z,132.30
2018-03-06T07:25:58.915Z,131.82
2018-03-06T07:28:26.445Z,127.10
2018-03-06T07:30:53.957Z,147.93
2018-03-06T07:33:22.261Z,131.37
2018-03-06T07:35:49.773Z,144.87
2018-03-06T07:38:17.276Z,127.40
2018-03-06T07:40:44.802Z,133.12
2018-03-06T07:43:12.464Z,120.80
2018-03-06T07:45:40.029Z,143.87
2018-03-06T07:48:08.305Z,157.23
2018-03-06T07:50:35.833Z,134.65
2018-03-06T07:53:03.340Z,148.98
2018-03-06T07:55:31.603Z,126.50
2018-03-06T07:57:59.157Z,120.57
2018-03-06T08:00:27.369Z,111.65
2018-03-06T08:02:54.893Z,115.90
2018-03-06T08:05:22.412Z,125.03
2018-03-06T08:07:50.512Z,109.78
2018-03-06T08:10:18.040Z,115.40
2018-03-06T08:12:45.550Z,108.87
2018-03-06T08:15:13.873Z,104.50
2018-03-06T08:17:41.378Z,106.12
2018-03-06T08:20:08.900Z,121.25
2018-03-06T08:22:36.413Z,115.55
2018-03-06T08:25:04.713Z,110.85
2018-03-06T08:27:32.224Z,125.78
2018-03-06T08:29:59.736Z,139.00
2018-03-06T08:32:27.260Z,118.47
2018-03-06T08:34:55.540Z,143.55
2018-03-06T08:37:23.070Z,136.05
2018-03-06T08:39:50.591Z,146.48
2018-03-06T08:42:18.116Z,134.05
2018-03-06T08:44:45.624Z,133.80
2018-03-06T08:47:13.136Z,132.57
2018-03-06T08:49:40.655Z,117.47
2018-03-06T08:52:08.179Z,130.73
2018-03-06T08:54:35.708Z,130.05
2018-03-06T08:57:03.215Z,130.73
2018-03-06T08:59:30.752Z,123.22
2018-03-06T09:01:59.164Z,127.87
2018-03-06T09:04:27.510Z,125.25
2018-03-06T09:06:55.808Z,126.25
2018-03-06T09:09:23.342Z,120.68
2018-03-06T09:11:53.832Z,134.60
2018-03-06T09:14:21.346Z,121.70
2018-03-06T09:16:48.886Z,119.13
2018-03-06T09:19:17.166Z,113.70
2018-03-06T09:21:45.488Z,109.70
2018-03-06T09:24:12.993Z,118.43
2018-03-06T09:26:40.489Z,115.03
2018-03-06T09:29:08.030Z,115.15
2018-03-06T09:31:38.065Z,117.85
2018-03-06T09:34:05.600Z,109.15
2018-03-06T09:36:33.910Z,101.65
2018-03-06T09:39:01.435Z,97.00
2018-03-06T09:41:30.302Z,112.20
2018-03-06T09:43:57.828Z,104.03
2018-03-06T09:46:25.338Z,75.70
2018-03-06T09:48:52.845Z,96.75
2018-03-06T09:51:20.395Z,92.32
2018-03-06T09:53:47.918Z,107.22
2018-03-06T09:56:15.456Z,89.87
2018-03-06T09:58:42.971Z,107.70
2018-03-06T10:01:10.496Z,113.07
2018-03-06T10:03:38.008Z,88.10
2018-03-06T10:06:05.503Z,87.50
2018-03-06T10:08:33.068Z,97.50
2018-03-06T10:11:00.560Z,93.78
2018-03-06T10:13:28.850Z,87.65
2018-03-06T10:15:56.365Z,90.32
2018-03-06T10:18:23.894Z,72.18
2018-03-06T10:20:51.404Z,79.45
2018-03-06T10:23:19.684Z,77.05
2018-03-06T10:25:47.961Z,74.78
2018-03-06T10:28:17.175Z,84.72
2018-03-06T10:30:44.675Z,80.90
2018-03-06T10:33:12.178Z,80.35
2018-03-06T10:35:40.473Z,71.97
2018-03-06T10:38:07.998Z,79.57
2018-03-06T10:40:35.521Z,69.82
2018-03-06T10:43:03.020Z,78.82
2018-03-06T10:45:30.530Z,80.40
2018-03-06T10:47:58.033Z,76.80
2018-03-06T10:50:25.560Z,63.75
2018-03-06T10:52:53.072Z,72.37
2018-03-06T10:55:21.363Z,72.18
2018-03-06T10:57:48.859Z,73.03
2018-03-06T11:00:16.362Z,74.12
2018-03-06T11:02:44.649Z,82.47
2018-03-06T11:05:12.930Z,73.78
2018-03-06T11:07:41.234Z,80.82
2018-03-06T11:10:08.727Z,70.47
2018-03-06T11:12:36.248Z,63.92
2018-03-06T11:15:03.748Z,69.75
2018-03-06T11:17:31.261Z,77.28
2018-03-06T11:19:59.688Z,74.12
2018-03-06T11:22:27.186Z,70.97
2018-03-06T11:24:54.720Z,72.40
2018-03-06T11:27:22.224Z,70.62
2018-03-06T11:29:49.785Z,73.78
2018-03-06T11:32:17.284Z,69.30
2018-03-06T11:34:44.915Z,63.67
2018-03-06T11:37:12.452Z,62.30
2018-03-06T11:39:42.277Z,76.90
2018-03-06T11:42:09.797Z,66.03
2018-03-06T11:44:38.129Z,84.07
2018-03-06T11:47:05.649Z,61.92
2018-03-06T11:49:33.923Z,61.65
2018-03-06T11:52:02.229Z,70.95
2018-03-06T11:54:29.752Z,57.55
2018-03-06T11:56:58.067Z,76.40
2018-03-06T11:59:25.593Z,62.15
2018-03-06T12:01:53.921Z,65.50
2018-03-06T12:04:21.415Z,63.40
2018-03-06T12:06:48.951Z,62.28
2018-03-06T12:09:16.465Z,61.05
2018-03-06T12:11:44.187Z,63.55
2018-03-06T12:14:11.707Z,53.83
2018-03-06T12:16:39.235Z,54.50
2018-03-06T12:19:07.539Z,56.05
2018-03-06T12:21:35.281Z,60.17
2018-03-06T12:24:03.702Z,49.70
2018-03-06T12:26:31.221Z,49.75
2018-03-06T12:28:59.529Z,47.13
2018-03-06T12:31:27.042Z,55.45
2018-03-06T12:33:54.569Z,58.10
2018-03-06T12:36:22.080Z,49.90
2018-03-06T12:38:50.354Z,52.58
2018-03-06T12:41:18.656Z,78.22
2018-03-06T12:43:46.185Z,57.38
2018-03-06T12:46:14.482Z,49.42
2018-03-06T12:48:42.753Z,62.58
2018-03-06T12:51:11.050Z,53.58
2018-03-06T12:53:38.561Z,56.08
2018-03-06T12:56:06.085Z,53.75
2018-03-06T12:58:33.618Z,52.40
2018-03-06T13:01:01.154Z,53.13
2018-03-06T13:03:29.433Z,49.30
2018-03-06T13:05:57.712Z,44.85
2018-03-06T13:08:26.012Z,48.22
2018-03-06T13:10:53.509Z,51.33
2018-03-06T13:13:21.037Z,44.42
2018-03-06T13:15:48.608Z,51.17
2018-03-06T13:18:16.137Z,39.10
2018-03-06T13:20:43.676Z,45.70
2018-03-06T13:23:11.232Z,38.05
2018-03-06T13:25:38.749Z,47.80
2018-03-06T13:28:06.277Z,43.65
2018-03-06T13:30:34.548Z,42.97
2018-03-06T13:33:02.826Z,43.55
2018-03-06T13:35:31.134Z,35.80
2018-03-06T13:37:58.658Z,39.35
2018-03-06T13:40:26.955Z,39.72
2018-03-06T13:42:54.481Z,40.78
2018-03-06T13:45:22.002Z,39.65
2018-03-06T13:47:49.525Z,43.85
2018-03-06T13:50:17.926Z,46.55
2018-03-06T13:52:46.712Z,40.40
2018-03-06T13:55:14.232Z,43.28
2018-03-06T13:57:41.736Z,58.42
2018-03-06T14:00:09.241Z,49.45
2018-03-06T14:02:36.757Z,57.25
2018-03-06T14:05:04.258Z,49.70
2018-03-06T14:07:31.834Z,58.78
2018-03-06T14:09:59.304Z,45.88
2018-03-06T14:12:26.829Z,56.45
2018-03-06T14:14:54.346Z,51.85
2018-03-06T14:17:21.859Z,59.28
2018-03-06T14:19:49.594Z,50.65
2018-03-06T14:22:17.108Z,54.88
2018-03-06T14:24:45.380Z,55.15
2018-03-06T14:27:12.888Z,55.80
2018-03-06T14:29:40.407Z,57.65
2018-03-06T14:32:08.678Z,60.63
2018-03-06T14:34:36.216Z,58.17
2018-03-06T14:37:03.724Z,59.25
2018-03-06T14:39:31.235Z,58.25
2018-03-06T14:41:58.752Z,53.63
2018-03-06T14:44:26.266Z,54.85
2018-03-06T14:46:53.764Z,54.60
2018-03-06T14:49:21.290Z,60.67
2018-03-06T14:51:49.566Z,54.10
2018-03-06T14:54:17.060Z,58.30
2018-03-06T14:56:44.579Z,57.65
2018-03-06T14:59:12.083Z,49.08
2018-03-06T15:01:39.609Z,55.33
2018-03-06T15:04:07.887Z,54.77
2018-03-06T15:06:35.430Z,45.30
2018-03-06T15:09:02.995Z,56.28
2018-03-06T15:11:30.516Z,49.10
2018-03-06T15:13:58.077Z,42.72
2018-03-06T15:16:25.603Z,49.47
2018-03-06T15:18:53.139Z,49.83
2018-03-06T15:21:20.651Z,49.28
2018-03-06T15:23:48.943Z,56.42
2018-03-06T15:26:16.473Z,50.45
2018-03-06T15:28:44.016Z,45.38
2018-03-06T15:31:12.390Z,48.35
2018-03-06T15:33:40.684Z,48.25
2018-03-06T15:36:08.193Z,47.22
2018-03-06T15:38:35.716Z,46.88
2018-03-06T15:41:03.219Z,49.72
2018-03-06T15:43:30.723Z,49.25
2018-03-06T15:45:58.794Z,55.50
2018-03-06T15:48:26.308Z,50.42
2018-03-06T15:50:53.846Z,52.65
2018-03-06T15:53:21.375Z,52.97
2018-03-06T15:55:48.975Z,51.03
2018-03-06T15:58:16.484Z,48.33
2018-03-06T16:00:44.767Z,52.33
2018-03-06T16:03:13.039Z,55.10
2018-03-06T16:05:41.303Z,60.85
2018-03-06T16:08:09.596Z,56.97
2018-03-06T16:10:37.903Z,43.33
2018-03-06T16:13:05.426Z,51.15
2018-03-06T16:15:33.710Z,45.42
2018-03-06T16:18:01.998Z,49.50
2018-03-06T16:20:30.542Z,53.38
2018-03-06T16:22:58.089Z,55.17
2018-03-06T16:25:25.597Z,53.67
2018-03-06T16:27:53.123Z,56.53
2018-03-06T16:30:20.635Z,51.30
2018-03-06T16:32:48.151Z,49.92
2018-03-06T16:35:15.690Z,66.40
2018-03-06T16:37:43.199Z,50.75
2018-03-06T16:40:11.496Z,52.20
2018-03-06T16:42:38.995Z,44.58
2018-03-06T16:45:06.607Z,49.53
2018-03-06T16:47:34.117Z,45.25
2018-03-06T16:50:01.640Z,52.80
2018-03-06T16:52:29.208Z,54.95
2018-03-06T16:54:56.718Z,46.55
2018-03-06T16:57:25.012Z,48.08
2018-03-06T16:59:53.314Z,57.67
2018-03-06T17:02:20.982Z,50.12
2018-03-06T17:04:48.484Z,53.70
2018-03-06T17:07:16.011Z,57.28
2018-03-06T17:09:43.531Z,53.33
2018-03-06T17:12:12.665Z,49.65
2018-03-06T17:14:40.199Z,43.22
2018-03-06T17:17:07.713Z,47.65
2018-03-06T17:19:35.212Z,53.47
2018-03-06T17:22:03.478Z,50.35
2018-03-06T17:24:31.758Z,53.45
2018-03-06T17:27:00.024Z,43.28
2018-03-06T17:29:28.313Z,61.03
2018-03-06T17:31:56.580Z,44.92
2018-03-06T17:34:24.862Z,50.00
2018-03-06T17:36:53.804Z,50.25
2018-03-06T17:39:21.343Z,47.40
2018-03-06T17:41:48.835Z,54.17
2018-03-06T17:44:16.367Z,49.20
2018-03-06T17:46:43.880Z,53.50
2018-03-06T17:49:11.372Z,50.22
2018-03-06T17:51:38.892Z,53.47
2018-03-06T17:54:06.395Z,53.33
2018-03-06T17:56:33.909Z,49.25
2018-03-06T17:59:01.409Z,41.63
2018-03-06T18:01:28.929Z,47.40
2018-03-06T18:03:56.433Z,42.38
2018-03-06T18:06:23.951Z,44.15
2018-03-06T18:08:51.450Z,40.92
2018-03-06T18:11:18.964Z,48.50
2018-03-06T18:13:46.471Z,45.55
2018-03-06T18:16:14.029Z,39.08
2018-03-06T18:18:41.557Z,44.92
2018-03-06T18:21:09.938Z,47.15
2018-03-06T18:23:37.419Z,39.00
2018-03-06T18:26:05.680Z,39.17
2018-03-06T18:28:33.960Z,34.05
2018-03-06T18:31:02.233Z,38.92
2018-03-06T18:33:30.530Z,40.72
2018-03-06T18:35:58.789Z,37.72
2018-03-06T18:38:27.073Z,42.17
2018-03-06T18:40:55.331Z,36.10
2018-03-06T18:43:22.818Z,37.85
2018-03-06T18:45:51.092Z,41.03
2018-03-06T18:48:19.358Z,33.20
2018-03-06T18:50:59.478Z,32.35
2018-03-06T18:53:26.999Z,35.13
2018-03-06T18:55:54.523Z,30.70
2018-03-06T18:58:22.041Z,38.22
2018-03-06T19:01:02.323Z,38.42
2018-03-06T19:03:41.554Z,34.90
2018-03-06T19:06:20.875Z,32.15
2018-03-06T19:08:48.373Z,34.70
2018-03-06T19:11:15.885Z,27.85
2018-03-06T19:13:44.177Z,30.35
2018-03-06T19:16:11.684Z,36.42
2018-03-06T19:18:39.970Z,30.52
2018-03-06T19:21:07.476Z,41.13
2018-03-06T19:23:34.983Z,34.25
2018-03-06T19:26:03.252Z,41.28
2018-03-06T19:28:31.540Z,40.63
2018-03-06T19:30:59.053Z,38.55
2018-03-06T19:33:26.554Z,37.58
2018-03-06T19:35:54.079Z,35.25
2018-03-06T19:38:21.636Z,33.67
2018-03-06T19:40:49.145Z,29.33
2018-03-06T19:43:16.660Z,34.17
2018-03-06T19:45:44.227Z,33.25
2018-03-06T19:48:11.726Z,31.42
2018-03-06T19:50:39.258Z,30.62
2018-03-06T19:53:06.762Z,31.35
2018-03-06T19:55:34.278Z,28.58
2018-03-06T19:58:02.566Z,27.48
2018-03-06T20:00:31.079Z,28.10
2018-03-06T20:02:58.608Z,27.73
2018-03-06T20:05:26.884Z,31.42
2018-03-06T20:07:55.172Z,33.03
2018-03-06T20:10:23.432Z,32.95
2018-03-06T20:12:51.720Z,34.08
2018-03-06T20:15:19.994Z,36.85
2018-03-06T20:17:48.289Z,34.78
2018-03-06T20:20:15.801Z,31.25
2018-03-06T20:22:43.374Z,36.33
2018-03-06T20:25:16.737Z,31.20
2018-03-06T20:27:44.278Z,33.67
2018-03-06T20:30:17.484Z,36.13
2018-03-06T20:32:50.771Z,29.23
2018-03-06T20:35:18.273Z,40.45
2018-03-06T20:37:45.773Z,31.45
2018-03-06T20:40:18.805Z,32.22
2018-03-06T20:42:46.295Z,33.42
2018-03-06T20:45:13.808Z,34.05
2018-03-06T20:47:41.308Z,27.73
2018-03-06T20:50:08.820Z,39.97
2018-03-06T20:52:42.006Z,33.22
2018-03-06T20:55:11.208Z,38.70
2018-03-06T20:57:38.702Z,40.28
2018-03-06T21:00:06.226Z,36.78
2018-03-06T21:02:33.748Z,39.03
2018-03-06T21:05:02.028Z,38.35
2018-03-06T21:07:30.294Z,38.10
2018-03-06T21:09:58.812Z,42.50
2018-03-06T21:12:26.320Z,34.45
2018-03-06T21:14:53.811Z,38.60
2018-03-06T21:17:22.094Z,47.13
2018-03-06T21:19:50.352Z,35.60
2018-03-06T21:22:17.860Z,33.05
2018-03-06T21:24:45.352Z,35.13
2018-03-06T21:27:12.868Z,42.45
2018-03-06T21:29:40.465Z,38.95
2018-03-06T21:32:07.976Z,36.85
2018-03-06T21:34:35.481Z,38.53
2018-03-06T21:37:02.989Z,35.85
2018-03-06T21:39:31.271Z,46.53
2018-03-06T21:41:58.785Z,38.33
2018-03-06T21:44:26.300Z,41.20
2018-03-06T21:46:53.798Z,44.58
2018-03-06T21:49:21.315Z,38.83
2018-03-06T21:51:48.804Z,46.63
2018-03-06T21:54:16.307Z,69.85
2018-03-06T21:56:44.576Z,39.00
2018-03-06T21:59:12.095Z,46.17
2018-03-06T22:01:39.593Z,41.45
2018-03-06T22:04:07.084Z,42.47
2018-03-06T22:06:34.598Z,39.90
2018-03-06T22:09:02.092Z,47.25
2018-03-06T22:11:30.386Z,48.72
2018-03-06T22:13:57.885Z,48.22
2018-03-06T22:16:25.399Z,42.20
2018-03-06T22:18:52.896Z,49.38
2018-03-06T22:21:20.407Z,47.97
2018-03-06T22:23:48.748Z,42.50
2018-03-06T22:26:16.382Z,37.50
2018-03-06T22:28:44.155Z,40.17
2018-03-06T22:31:11.754Z,40.17
2018-03-06T22:33:40.097Z,35.42
2018-03-06T22:36:07.696Z,40.58
2018-03-06T22:38:35.339Z,37.38
2018-03-06T22:41:02.984Z,34.20
2018-03-06T22:43:30.597Z,31.17
2018-03-06T22:45:58.193Z,35.55
2018-03-06T22:48:25.711Z,30.48
2018-03-06T22:50:54.001Z,33.70
2018-03-06T22:53:22.267Z,32.78
2018-03-06T22:55:50.542Z,28.23
2018-03-06T22:58:18.803Z,30.25
2018-03-06T23:00:46.320Z,27.80
2018-03-06T23:03:13.815Z,27.23
2018-03-06T23:05:41.338Z,33.15
2018-03-06T23:08:08.844Z,26.85
2018-03-06T23:10:36.352Z,27.20
2018-03-06T23:13:03.876Z,28.60
2018-03-06T23:15:32.127Z,27.45
2018-03-06T23:17:59.644Z,29.20
2018-03-06T23:20:27.137Z,24.95
2018-03-06T23:22:54.660Z,24.27
2018-03-06T23:25:22.156Z,25.35
2018-03-06T23:27:49.687Z,23.35
2018-03-06T23:30:17.189Z,20.42
2018-03-06T23:32:44.735Z,25.60
2018-03-06T23:35:12.310Z,17.55
2018-03-06T23:37:39.862Z,21.52
2018-03-06T23:40:07.432Z,16.80
2018-03-06T23:42:34.978Z,17.70
2018-03-06T23:45:02.549Z,22.67
2018-03-06T23:47:30.335Z,20.88
2018-03-06T23:49:58.672Z,13.10
2018-03-06T23:52:26.216Z,13.55
2018-03-06T23:54:53.781Z,17.08
2018-03-06T23:57:21.324Z,13.13
2018-03-06T23:59:48.858Z,13.18
